Time;durP1;ratioP1;P1;durP2;ratioP2;P2;SDS_P1;SDS_P2;PMS_P1;PMS_P2;Temp;Humidity;BMP_temperature;BMP_pressure;BME280_temperature;BME280_humidity;BME280_pressure;Samples;Min_cycle;Max_cycle;Signal;HPM_P1;HPM_P2
2022/10/12 00:01:19;;;;;;;12.25;4.20;;;7.30;89.90;;;;;;5035893;28;20041;-46
2022/10/12 00:03:46;;;;;;;6.82;3.85;;;7.20;89.70;;;;;;5018462;28;20096;-47
2022/10/12 00:06:32;;;;;;;11.50;5.72;;;7.20;89.80;;;;;;5001493;28;20064;-46
2022/10/12 00:09:01;;;;;;;7.78;4.15;;;7.10;89.70;;;;;;5054794;28;20056;-46
2022/10/12 00:11:28;;;;;;;8.07;3.40;;;7.20;90.10;;;;;;5054331;28;20032;-46
2022/10/12 00:14:06;;;;;;;7.43;3.58;;;7.20;90.10;;;;;;5044539;28;20040;-48
2022/10/12 00:16:36;;;;;;;11.07;4.43;;;7.20;90.30;;;;;;5034453;28;20083;-48
2022/10/12 00:19:03;;;;;;;8.77;3.97;;;7.20;90.20;;;;;;5012104;28;20485;-47
2022/10/12 00:21:30;;;;;;;5.85;3.95;;;7.20;90.20;;;;;;5037765;28;20029;-45
2022/10/12 00:23:59;;;;;;;7.25;4.10;;;7.20;90.50;;;;;;5037248;28;20166;-46
2022/10/12 00:26:26;;;;;;;9.77;4.68;;;7.20;90.70;;;;;;5021767;28;20041;-49
2022/10/12 00:28:58;;;;;;;9.60;4.90;;;7.20;90.70;;;;;;5022462;28;20052;-46
2022/10/12 00:31:26;;;;;;;7.63;4.78;;;7.30;90.70;;;;;;5002915;28;20128;-46
2022/10/12 00:33:54;;;;;;;8.38;4.65;;;7.20;90.60;;;;;;5014810;28;20064;-45
2022/10/12 00:36:39;;;;;;;9.23;4.97;;;7.30;90.60;;;;;;5053815;28;20520;-48
2022/10/12 00:39:09;;;;;;;6.57;4.32;;;7.20;90.60;;;;;;5054587;28;20124;-45
2022/10/12 00:41:40;;;;;;;10.10;5.25;;;7.20;90.60;;;;;;5019522;28;20037;-46
2022/10/12 00:44:40;;;;;;;7.38;4.75;;;7.20;90.70;;;;;;5036478;28;20078;-48
2022/10/12 00:47:18;;;;;;;;;;;7.30;90.80;;;;;;5054015;28;20100;-46
2022/10/12 00:49:49;;;;;;;9.77;4.65;;;7.20;90.60;;;;;;5053679;28;20299;-45
2022/10/12 00:52:18;;;;;;;6.78;5.05;;;7.20;90.70;;;;;;5020263;28;20061;-48
2022/10/12 00:54:48;;;;;;;9.13;4.68;;;7.20;90.90;;;;;;5053464;28;20453;-45
2022/10/12 00:57:17;;;;;;;9.13;4.97;;;7.20;90.90;;;;;;5053681;28;20051;-47
2022/10/12 01:00:08;;;;;;;11.45;4.60;;;7.20;90.90;;;;;;5035979;28;20029;-50
2022/10/12 01:02:36;;;;;;;9.02;4.72;;;7.30;90.90;;;;;;5039755;28;20456;-45
2022/10/12 01:05:03;;;;;;;8.32;4.28;;;7.20;90.90;;;;;;5034565;28;20086;-47
2022/10/12 01:07:30;;;;;;;6.80;4.15;;;7.20;90.80;;;;;;5025891;28;20036;-44
2022/10/12 01:09:57;;;;;;;6.57;3.55;;;7.20;90.90;;;;;;5051155;28;20395;-47
2022/10/12 01:12:27;;;;;;;9.23;3.95;;;7.20;90.90;;;;;;5047267;28;20044;-46
2022/10/12 01:14:53;;;;;;;7.20;3.97;;;7.20;90.80;;;;;;5033935;28;20091;-48
2022/10/12 01:17:44;;;;;;;8.40;4.82;;;7.10;90.70;;;;;;5015266;28;20037;-44
2022/10/12 01:20:35;;;;;;;8.95;5.22;;;7.10;90.70;;;;;;5052583;28;20025;-45
2022/10/12 01:23:29;;;;;;;9.93;4.43;;;7.10;90.80;;;;;;5053315;28;20418;-46
2022/10/12 01:26:43;;;;;;;10.30;5.07;;;7.10;91.00;;;;;;5051545;28;20044;-45
2022/10/12 01:29:47;;;;;;;10.95;5.10;;;7.20;91.20;;;;;;5040391;28;20040;-44
2022/10/12 01:32:45;;;;;;;10.10;4.78;;;7.20;91.30;;;;;;5053490;28;20033;-47
2022/10/12 01:35:49;;;;;;;9.48;6.13;;;7.20;91.20;;;;;;5037770;28;20022;-47
2022/10/12 01:38:41;;;;;;;10.65;4.85;;;7.20;91.30;;;;;;5053193;28;20045;-45
2022/10/12 01:41:30;;;;;;;10.70;5.82;;;7.20;91.30;;;;;;5051256;28;20025;-46
2022/10/12 01:44:03;;;;;;;12.88;6.15;;;7.10;91.30;;;;;;5053503;28;20086;-50
2022/10/12 01:46:32;;;;;;;12.35;5.63;;;7.10;91.40;;;;;;5035962;28;20124;-46
2022/10/12 01:49:10;;;;;;;13.63;6.20;;;7.10;91.50;;;;;;5052395;28;20028;-49
2022/10/12 01:52:12;;;;;;;9.70;5.10;;;7.10;91.60;;;;;;5053354;28;20032;-45
2022/10/12 01:55:30;;;;;;;9.23;5.15;;;7.10;91.30;;;;;;5050117;28;20087;-45
2022/10/12 01:58:17;;;;;;;8.43;5.45;;;7.10;91.30;;;;;;5001376;28;20352;-48
2022/10/12 02:01:19;;;;;;;10.45;5.15;;;7.00;91.20;;;;;;5053044;28;20025;-48
2022/10/12 02:04:12;;;;;;;7.78;4.72;;;6.90;91.10;;;;;;4952931;29;20475;-46
2022/10/12 02:07:15;;;;;;;7.80;4.60;;;6.90;90.90;;;;;;4953234;29;20047;-48
2022/10/12 02:09:42;;;;;;;7.57;4.72;;;6.90;90.80;;;;;;4935599;29;20047;-49
2022/10/12 02:12:21;;;;;;;9.25;4.95;;;6.90;90.80;;;;;;4952575;29;20038;-45
2022/10/12 02:15:05;;;;;;;11.73;4.93;;;6.80;90.80;;;;;;4937626;29;20050;-46
2022/10/12 02:17:35;;;;;;;8.65;5.57;;;6.80;90.80;;;;;;4952383;29;20393;-48
2022/10/12 02:20:04;;;;;;;9.13;5.32;;;6.80;90.80;;;;;;4953299;29;20457;-48
2022/10/12 02:22:43;;;;;;;8.18;5.35;;;6.70;90.90;;;;;;4952930;29;20110;-50
2022/10/12 02:25:13;;;;;;;8.43;4.80;;;6.70;90.90;;;;;;4949360;29;20171;-49
2022/10/12 02:27:46;;;;;;;9.88;5.88;;;6.70;91.00;;;;;;4952743;29;20423;-48
2022/10/12 02:30:17;;;;;;;8.93;5.47;;;6.70;90.90;;;;;;4953274;29;20042;-46
2022/10/12 02:33:09;;;;;;;11.25;6.25;;;6.70;90.90;;;;;;4952672;29;20047;-49
2022/10/12 02:36:01;;;;;;;9.63;5.75;;;6.70;91.00;;;;;;4952580;29;20024;-46
2022/10/12 02:38:58;;;;;;;8.45;5.13;;;6.70;91.10;;;;;;4943994;29;20043;-49
2022/10/12 02:41:39;;;;;;;8.75;5.65;;;6.70;91.00;;;;;;4993621;28;20054;-49
2022/10/12 02:44:10;;;;;;;8.65;6.00;;;6.70;90.80;;;;;;4994492;28;20125;-47
2022/10/12 02:46:40;;;;;;;14.73;6.47;;;6.70;90.90;;;;;;5032458;28;20028;-48
2022/10/12 02:49:08;;;;;;;12.80;6.85;;;6.80;91.00;;;;;;5004119;28;20459;-46
2022/10/12 02:51:36;;;;;;;11.07;6.07;;;6.70;91.00;;;;;;5030085;28;20029;-48
2022/10/12 02:54:02;;;;;;;11.30;7.45;;;6.80;91.00;;;;;;5026398;28;20544;-46
2022/10/12 02:56:29;;;;;;;8.77;5.57;;;6.80;90.80;;;;;;5013087;28;20971;-46
2022/10/12 02:58:55;;;;;;;9.95;6.65;;;6.70;90.80;;;;;;5028818;28;20022;-49
2022/10/12 03:01:23;;;;;;;10.07;6.03;;;6.70;90.80;;;;;;5025002;28;20191;-46
2022/10/12 03:03:49;;;;;;;10.77;5.65;;;6.80;90.80;;;;;;5028134;28;20021;-46
2022/10/12 03:06:34;;;;;;;11.63;7.15;;;6.80;90.80;;;;;;5009832;28;20144;-50
2022/10/12 03:09:04;;;;;;;17.95;6.97;;;6.70;90.80;;;;;;5027602;28;20030;-45
2022/10/12 03:11:31;;;;;;;;;;;6.80;90.80;;;;;;5027896;28;20052;-50
2022/10/12 03:14:05;;;;;;;10.50;7.32;;;6.80;91.00;;;;;;5009935;28;19995;-46
2022/10/12 03:16:32;;;;;;;12.77;7.22;;;6.80;91.00;;;;;;5028115;28;20041;-47
2022/10/12 03:19:00;;;;;;;10.95;7.53;;;6.90;91.20;;;;;;5027787;28;20387;-46
2022/10/12 03:21:26;;;;;;;13.40;7.20;;;6.90;91.30;;;;;;5032464;28;20029;-46
2022/10/12 03:23:54;;;;;;;12.43;7.75;;;6.90;91.30;;;;;;5017620;28;20068;-45
2022/10/12 03:26:21;;;;;;;11.45;7.25;;;6.90;91.40;;;;;;5011215;28;20022;-46
2022/10/12 03:28:48;;;;;;;12.80;7.05;;;6.90;91.30;;;;;;5013148;28;20022;-48
2022/10/12 03:31:14;;;;;;;11.90;7.15;;;6.90;91.30;;;;;;5013797;28;20084;-46
2022/10/12 03:33:43;;;;;;;12.43;7.13;;;6.90;91.30;;;;;;5032032;28;20367;-47
2022/10/12 03:36:10;;;;;;;12.40;7.80;;;6.90;91.30;;;;;;5035331;28;20021;-45
